メインページ
METAR-TAF:

METAR-TAF

空港 :

Lankaran, アゼルバイジャン

緯度: 38-44-47N, 経度: 048-49-04E, 海抜: 9m

現時点の気象観測

当レポートは12分前の18:00(UTC)に作成
西/北西の風 5kt
気温 6°C
湿度 81%
気圧 1032 hPa
視程10km以上
高度10000ftの雲は散在している

METAR: UBBL 171800Z 29005KT 9999 SCT100 06/03 Q1032 R33/CLRD// NOSIG RMK MT OP

時間: 22:12 (18:12 UTC)

予報

当レポートは54分前の17:18(UTC)に作成
予報は17日の 18時(UTC)から 18日の 18時(UTC)まで有効
変向風 4kt
視程: 9000m
高度3000ftの雲は散在している
高度8000ftの千切れ雲あり
17日の 18時(UTC)から 18日の 04時(UTC)まで一時的に
北西の風 6kt
視程: 3000m
高度800ftの千切れ雲あり
18日の 04時(UTC)から 18日の 06時(UTC)まで徐々に
北/北西の風 10kt
18日の 06時(UTC)から 18日の 18時(UTC)まで一時的に
西/北西の風 16kt
視程: 6000m
高度1000ftの千切れ雲あり
高度3000ftの曇り
小雨

TAF: UBBL 171718Z 1718/1818 VRB04KT 9000 SCT030 BKN080 TX13/1810Z TN03/1802Z TEMPO 1718/1804 31006KT 3000 BR BKN008 BECMG 1804/1806 33010KT TEMPO 1806/1818 29016KT 6000 -RA BKN010 OVC030

4,000以上の空港の気象観測と天気予報(METAR報とTAF報)

利用可能な観測所は地図上に黄色い丸と赤い丸で示す。

丸の上にカーソルを重ねると観測所名を参照できる。

次にクリックすると気象観測と天気予報を参照できる。

マップの切り替え:黒色「×」印の緑ボタンをクリックして拡大、「-」印の緑ボタンをクリックして縮小、緑色の三角印をクリックして隣りの地図に切り替え


METAR-TAF: